createdAt,value
2022-11-21T00:02:42.912Z,6
2022-11-21T00:07:59.624Z,5
2022-11-21T00:13:16.096Z,4
2022-11-21T00:18:32.547Z,4
2022-11-21T00:23:49.101Z,6
2022-11-21T00:29:05.615Z,7
2022-11-21T00:34:22.134Z,7
2022-11-21T00:39:38.513Z,5
2022-11-21T00:44:54.993Z,8
2022-11-21T00:50:11.489Z,6
2022-11-21T00:55:27.982Z,4
2022-11-21T01:00:44.431Z,7
2022-11-21T01:06:03.843Z,6
2022-11-21T01:11:25.225Z,5
2022-11-21T01:16:41.705Z,6
2022-11-21T01:21:58.197Z,6
2022-11-21T01:27:14.676Z,7
2022-11-21T01:32:31.101Z,4
2022-11-21T01:37:47.555Z,4
2022-11-21T01:43:03.952Z,3
2022-11-21T01:48:20.410Z,3
2022-11-21T01:53:36.891Z,3
2022-11-21T01:58:53.337Z,2
2022-11-21T02:04:09.829Z,1
2022-11-21T02:09:26.259Z,2
2022-11-21T02:14:42.727Z,3
2022-11-21T02:19:59.171Z,2
2022-11-21T02:25:15.705Z,2
2022-11-21T02:30:32.193Z,2
2022-11-21T02:35:48.624Z,2
2022-11-21T02:41:05.070Z,2
2022-11-21T02:46:21.479Z,2
2022-11-21T02:51:37.992Z,3
2022-11-21T02:56:54.398Z,4
2022-11-21T03:02:10.839Z,3
2022-11-21T03:07:27.391Z,6
2022-11-21T03:12:43.834Z,3
2022-11-21T03:18:02.359Z,3
2022-11-21T03:23:18.856Z,4
2022-11-21T03:28:35.346Z,3
2022-11-21T03:33:51.820Z,3
2022-11-21T03:39:08.346Z,2
2022-11-21T03:44:24.925Z,1
2022-11-21T03:49:41.259Z,2
2022-11-21T03:54:57.740Z,3
2022-11-21T04:00:14.178Z,3
2022-11-21T04:05:30.636Z,1
2022-11-21T04:10:47.007Z,2
2022-11-21T04:16:03.488Z,2
2022-11-21T04:21:20.008Z,5
2022-11-21T04:26:36.489Z,4
2022-11-21T04:31:52.964Z,6
2022-11-21T04:37:11.783Z,7
2022-11-21T04:42:25.860Z,7
2022-11-21T04:47:42.296Z,2
2022-11-21T04:52:58.747Z,5
2022-11-21T04:58:15.228Z,3
2022-11-21T05:03:31.660Z,3
2022-11-21T05:08:52.258Z,4
2022-11-21T05:14:05.396Z,3
2022-11-21T05:19:21.876Z,6
2022-11-21T05:24:38.334Z,4
2022-11-21T05:29:54.800Z,8
2022-11-21T05:35:11.320Z,7
2022-11-21T05:40:27.765Z,6
2022-11-21T05:45:44.276Z,7
2022-11-21T05:56:18.298Z,6
2022-11-21T06:01:34.719Z,4
2022-11-21T06:06:51.124Z,4
2022-11-21T06:12:07.722Z,4
2022-11-21T06:17:24.118Z,4
2022-11-21T06:22:40.584Z,5
2022-11-21T06:27:57.076Z,4
2022-11-21T06:33:13.510Z,4
2022-11-21T06:38:31.004Z,51
2022-11-21T06:43:47.817Z,36
2022-11-21T06:49:04.040Z,26
2022-11-21T06:54:20.541Z,26
2022-11-21T06:59:37.033Z,20
2022-11-21T07:04:53.493Z,14
2022-11-21T07:10:10.052Z,16
2022-11-21T07:15:26.525Z,15
2022-11-21T07:20:42.975Z,16
2022-11-21T07:25:59.457Z,18
2022-11-21T07:31:15.928Z,16
2022-11-21T07:36:32.616Z,14
2022-11-21T07:41:48.992Z,15
2022-11-21T07:47:05.438Z,17
2022-11-21T07:52:21.939Z,19
2022-11-21T07:57:38.463Z,17
2022-11-21T08:02:54.994Z,16
2022-11-21T08:08:11.680Z,14
2022-11-21T08:13:28.000Z,14
2022-11-21T08:18:44.440Z,15
2022-11-21T08:24:00.891Z,14
2022-11-21T08:29:17.439Z,15
2022-11-21T08:34:33.864Z,11
2022-11-21T08:39:50.329Z,9
2022-11-21T08:45:06.810Z,9
2022-11-21T08:50:23.187Z,6
2022-11-21T08:55:39.655Z,6
2022-11-21T09:00:56.036Z,5
2022-11-21T09:06:12.489Z,4
2022-11-21T09:11:28.909Z,6
2022-11-21T09:16:45.312Z,4
2022-11-21T09:22:01.702Z,3
2022-11-21T09:27:18.115Z,4
2022-11-21T09:32:34.565Z,6
2022-11-21T09:37:50.872Z,3
2022-11-21T09:43:07.245Z,3
2022-11-21T09:48:23.680Z,3
2022-11-21T09:53:40.068Z,2
2022-11-21T09:58:56.427Z,6
2022-11-21T10:04:12.809Z,5
2022-11-21T10:09:29.183Z,4
2022-11-21T10:14:45.511Z,2
2022-11-21T10:20:01.928Z,5
2022-11-21T10:25:21.710Z,3
2022-11-21T10:30:34.649Z,3
2022-11-21T10:35:51.431Z,2
2022-11-21T10:41:07.777Z,3
2022-11-21T10:46:24.171Z,4
2022-11-21T10:51:40.499Z,2
2022-11-21T10:56:56.846Z,3
2022-11-21T11:02:13.188Z,3
2022-11-21T11:07:29.609Z,2
2022-11-21T11:12:45.904Z,3
2022-11-21T11:18:07.637Z,2
2022-11-21T11:23:18.520Z,4
2022-11-21T11:28:34.882Z,2
2022-11-21T11:33:51.174Z,3
2022-11-21T11:39:07.576Z,3
2022-11-21T11:44:23.913Z,2
2022-11-21T11:49:40.243Z,3
2022-11-21T11:54:56.573Z,2
2022-11-21T12:00:12.905Z,3
2022-11-21T12:08:20.033Z,2
2022-11-21T12:12:35.251Z,2
2022-11-21T12:17:51.581Z,3
2022-11-21T12:23:07.943Z,2
2022-11-21T12:28:24.279Z,3
2022-11-21T12:33:40.654Z,1
2022-11-21T12:38:56.987Z,2
2022-11-21T12:44:14.087Z,2
2022-11-21T12:49:31.286Z,2
2022-11-21T12:54:47.440Z,2
2022-11-21T13:00:03.838Z,4
2022-11-21T13:05:20.208Z,4
2022-11-21T13:10:36.580Z,5
2022-11-21T13:15:52.929Z,5
2022-11-21T13:21:09.274Z,5
2022-11-21T13:26:25.670Z,5
2022-11-21T13:31:42.119Z,7
2022-11-21T13:36:58.474Z,5
2022-11-21T13:42:19.921Z,5
2022-11-21T13:47:31.781Z,6
2022-11-21T13:52:48.171Z,5
2022-11-21T13:58:04.592Z,5
2022-11-21T14:03:21.032Z,6
2022-11-21T14:08:37.460Z,8
2022-11-21T14:13:53.824Z,7
2022-11-21T14:19:10.230Z,7
2022-11-21T14:24:31.819Z,7
2022-11-21T14:29:43.174Z,6
2022-11-21T14:34:59.624Z,6
2022-11-21T14:40:16.626Z,6
2022-11-21T14:45:38.029Z,6
2022-11-21T14:50:54.447Z,7
2022-11-21T14:56:10.910Z,8
2022-11-21T15:01:27.284Z,7
2022-11-21T15:06:43.722Z,6
2022-11-21T15:12:00.129Z,6
2022-11-21T15:17:16.633Z,9
2022-11-21T15:22:33.740Z,13
2022-11-21T15:27:50.220Z,12
2022-11-21T15:33:07.052Z,16
2022-11-21T15:38:23.466Z,16
2022-11-21T15:43:39.904Z,19
2022-11-21T15:48:56.363Z,21
2022-11-21T15:54:12.844Z,24
2022-11-21T15:59:29.452Z,28
2022-11-21T16:04:46.050Z,31
2022-11-21T16:10:02.913Z,40
2022-11-21T16:15:19.125Z,35
2022-11-21T16:20:35.605Z,34
2022-11-21T16:25:52.083Z,48
2022-11-21T16:31:08.560Z,43
2022-11-21T16:36:25.077Z,40
2022-11-21T16:41:41.592Z,42
2022-11-21T16:47:00.215Z,32
2022-11-21T16:52:15.149Z,37
2022-11-21T16:57:31.709Z,36
2022-11-21T17:02:48.163Z,32
2022-11-21T17:08:04.614Z,30
2022-11-21T17:13:21.109Z,32
2022-11-21T17:18:37.647Z,32
2022-11-21T17:23:54.712Z,31
2022-11-21T17:29:11.203Z,30
2022-11-21T17:34:32.691Z,30
2022-11-21T17:39:44.112Z,35
2022-11-21T17:45:01.922Z,33
2022-11-21T17:50:18.014Z,45
2022-11-21T17:55:34.522Z,40
2022-11-21T18:00:51.218Z,47
2022-11-21T18:06:08.020Z,60
2022-11-21T18:11:24.291Z,59
2022-11-21T18:16:43.645Z,55
2022-11-21T18:21:57.325Z,59
2022-11-21T18:27:13.847Z,62
2022-11-21T18:32:30.391Z,57
2022-11-21T18:37:47.624Z,58
2022-11-21T18:43:04.381Z,55
2022-11-21T18:48:22.475Z,52
2022-11-21T18:53:38.610Z,53
2022-11-21T18:58:58.495Z,54
2022-11-21T19:04:16.832Z,49
2022-11-21T19:09:32.514Z,55
2022-11-21T19:14:44.812Z,60
2022-11-21T19:20:03.840Z,60
2022-11-21T19:25:20.358Z,59
2022-11-21T19:30:36.827Z,54
2022-11-21T19:35:53.979Z,59
2022-11-21T19:41:10.449Z,55
2022-11-21T19:46:26.973Z,58
2022-11-21T19:51:43.505Z,56
2022-11-21T19:57:01.895Z,57
2022-11-21T20:02:18.717Z,54
2022-11-21T20:07:35.261Z,52
2022-11-21T20:12:51.491Z,50
2022-11-21T20:18:08.065Z,50
2022-11-21T20:23:24.736Z,48
2022-11-21T20:28:41.251Z,49
2022-11-21T20:33:57.835Z,43
2022-11-21T20:39:14.386Z,48
2022-11-21T20:49:48.689Z,54
2022-11-21T20:55:04.938Z,52
2022-11-21T21:00:21.387Z,48
2022-11-21T21:05:38.491Z,50
2022-11-21T21:11:05.779Z,48
2022-11-21T21:16:12.100Z,48
2022-11-21T21:21:28.590Z,45
2022-11-21T21:26:45.714Z,46
2022-11-21T21:32:02.136Z,41
2022-11-21T21:37:18.555Z,44
2022-11-21T21:42:35.166Z,37
2022-11-21T21:47:51.682Z,39
2022-11-21T21:53:08.463Z,37
2022-11-21T21:58:24.910Z,30
2022-11-21T22:03:41.376Z,31
2022-11-21T22:08:58.177Z,28
2022-11-21T22:14:14.685Z,27
2022-11-21T22:19:31.451Z,24
2022-11-21T22:24:47.676Z,26
2022-11-21T22:30:04.212Z,25
2022-11-21T22:35:20.690Z,28
2022-11-21T22:40:37.198Z,27
2022-11-21T22:45:53.686Z,28
2022-11-21T22:51:10.214Z,29
2022-11-21T22:56:26.665Z,27
2022-11-21T23:01:43.242Z,26
2022-11-21T23:06:59.322Z,31
2022-11-21T23:12:15.833Z,31
2022-11-21T23:17:32.308Z,30
2022-11-21T23:22:48.794Z,28
2022-11-21T23:28:06.656Z,30
2022-11-21T23:33:23.140Z,29
2022-11-21T23:38:39.653Z,25
2022-11-21T23:43:56.042Z,22
2022-11-21T23:49:12.535Z,20
2022-11-21T23:54:28.963Z,17
2022-11-21T23:59:45.456Z,14
